Time;durP1;ratioP1;P1;durP2;ratioP2;P2;SDS_P1;SDS_P2;PMS_P1;PMS_P2;Temp;Humidity;BMP_temperature;BMP_pressure;BME280_temperature;BME280_humidity;BME280_pressure;Samples;Min_cycle;Max_cycle;Signal;HPM_P1;HPM_P2
2022/03/30 00:02:18;;;;;;;29.67;12.25;;;3.70;99.90;;;;;;5029614;28;20035;-78
2022/03/30 00:04:43;;;;;;;27.98;12.13;;;3.70;99.90;;;;;;5035250;28;20473;-78
2022/03/30 00:07:09;;;;;;;23.45;11.98;;;3.70;99.90;;;;;;5028416;28;20047;-78
2022/03/30 00:09:35;;;;;;;23.50;12.02;;;3.80;99.90;;;;;;5032186;28;20041;-78
2022/03/30 00:12:01;;;;;;;29.88;11.98;;;3.80;99.90;;;;;;5028189;28;20048;-77
2022/03/30 00:14:26;;;;;;;26.13;12.45;;;3.70;99.90;;;;;;5030760;28;20037;-78
2022/03/30 00:16:52;;;;;;;28.05;12.90;;;3.80;99.90;;;;;;5029701;28;20099;-78
2022/03/30 00:19:18;;;;;;;21.30;11.50;;;3.70;99.90;;;;;;5032390;28;20033;-78
2022/03/30 00:21:45;;;;;;;26.70;11.30;;;3.70;99.90;;;;;;5028780;28;20041;-78
2022/03/30 00:24:11;;;;;;;26.85;11.20;;;3.60;99.90;;;;;;5035015;28;20041;-78
2022/03/30 00:26:37;;;;;;;26.55;12.38;;;3.70;99.90;;;;;;5029698;28;20048;-78
2022/03/30 00:29:04;;;;;;;29.38;13.07;;;3.60;99.90;;;;;;5030154;28;20418;-78
2022/03/30 00:31:31;;;;;;;26.33;11.80;;;3.60;99.90;;;;;;5029210;28;20121;-78
2022/03/30 00:33:56;;;;;;;27.88;12.35;;;3.60;99.90;;;;;;5032728;28;20045;-78
2022/03/30 00:36:22;;;;;;;24.55;11.73;;;3.60;99.90;;;;;;5061003;28;20049;-78
2022/03/30 00:38:48;;;;;;;26.42;12.65;;;3.60;99.90;;;;;;5028995;28;20068;-78
2022/03/30 00:41:13;;;;;;;27.67;11.55;;;3.50;99.90;;;;;;5029981;28;20573;-78
2022/03/30 00:43:39;;;;;;;22.75;12.02;;;3.50;99.90;;;;;;5030878;28;20046;-78
2022/03/30 00:46:05;;;;;;;24.50;11.80;;;3.50;99.90;;;;;;5029679;28;20419;-78
2022/03/30 00:48:31;;;;;;;26.05;11.88;;;3.50;99.90;;;;;;5028567;28;20037;-78
2022/03/30 00:50:57;;;;;;;26.70;12.25;;;3.50;99.90;;;;;;5029726;28;20037;-78
2022/03/30 00:53:23;;;;;;;25.83;12.50;;;3.50;99.90;;;;;;5031787;28;20071;-78
2022/03/30 00:55:52;;;;;;;22.65;12.05;;;3.60;99.90;;;;;;5024878;28;20090;-78
2022/03/30 00:58:19;;;;;;;28.13;12.80;;;3.40;99.90;;;;;;5029247;28;20033;-78
2022/03/30 01:00:44;;;;;;;26.52;12.18;;;3.40;99.90;;;;;;5010848;28;20034;-78
2022/03/30 01:03:10;;;;;;;23.63;11.80;;;3.60;99.90;;;;;;5031154;28;20048;-78
2022/03/30 01:05:36;;;;;;;28.65;12.15;;;3.40;99.90;;;;;;5028573;28;20033;-78
2022/03/30 01:08:02;;;;;;;23.55;11.55;;;3.40;99.90;;;;;;5029262;28;20623;-78
2022/03/30 01:10:28;;;;;;;24.27;12.18;;;3.30;99.90;;;;;;5026789;28;20042;-78
2022/03/30 01:12:54;;;;;;;27.63;10.95;;;3.20;99.90;;;;;;5026348;28;20037;-77
2022/03/30 01:15:21;;;;;;;20.85;11.48;;;3.10;99.90;;;;;;5030519;28;20038;-78
2022/03/30 01:17:46;;;;;;;25.83;12.68;;;3.00;99.90;;;;;;5027736;28;20033;-78
2022/03/30 01:20:16;;;;;;;25.45;11.70;;;3.00;99.90;;;;;;5031413;28;20120;-78
2022/03/30 01:22:42;;;;;;;26.25;12.00;;;3.00;99.90;;;;;;5026885;28;20136;-78
2022/03/30 01:25:09;;;;;;;27.40;11.90;;;3.00;99.90;;;;;;5010334;28;20049;-78
2022/03/30 01:27:36;;;;;;;29.40;12.25;;;3.00;99.90;;;;;;5028431;28;20038;-78
2022/03/30 01:33:03;;;;;;;29.10;12.38;;;3.00;99.90;;;;;;5027974;28;20132;-78
2022/03/30 01:35:29;;;;;;;23.08;11.65;;;3.00;99.90;;;;;;5030411;28;20053;-78
2022/03/30 01:37:55;;;;;;;24.85;11.18;;;3.00;99.90;;;;;;5028226;28;20107;-78
2022/03/30 01:40:22;;;;;;;27.95;11.15;;;3.00;99.90;;;;;;5032355;28;20053;-78
2022/03/30 01:42:48;;;;;;;29.67;12.50;;;2.90;99.90;;;;;;5026217;28;20116;-78
2022/03/30 01:45:15;;;;;;;24.60;11.80;;;3.10;99.90;;;;;;5062423;28;20047;-77
2022/03/30 01:47:55;;;;;;;27.83;12.63;;;2.90;99.90;;;;;;5032626;28;20032;-78
2022/03/30 01:50:22;;;;;;;29.13;13.35;;;2.90;99.90;;;;;;5030213;28;20040;-77
2022/03/30 01:52:48;;;;;;;29.55;12.40;;;2.90;99.90;;;;;;5029346;28;20127;-78
2022/03/30 01:55:14;;;;;;;28.58;12.98;;;2.90;99.90;;;;;;5031337;28;20084;-78
2022/03/30 01:57:40;;;;;;;25.30;11.10;;;2.90;99.90;;;;;;5030800;28;20041;-78
2022/03/30 02:00:07;;;;;;;26.38;12.38;;;2.90;99.90;;;;;;5031822;28;20037;-79
2022/03/30 02:02:33;;;;;;;22.00;10.50;;;2.80;99.90;;;;;;5030083;28;20536;-78
2022/03/30 02:04:58;;;;;;;26.60;12.10;;;2.80;99.90;;;;;;5015476;28;20080;-77
2022/03/30 02:07:24;;;;;;;23.33;12.05;;;2.70;99.90;;;;;;5034102;28;20514;-78
2022/03/30 02:09:51;;;;;;;28.33;11.30;;;2.60;99.90;;;;;;5032180;28;20127;-78
2022/03/30 02:12:17;;;;;;;27.42;12.70;;;2.60;99.90;;;;;;5032035;28;20475;-78
2022/03/30 02:14:43;;;;;;;26.92;12.43;;;2.20;99.90;;;;;;5031922;28;20490;-78
2022/03/30 02:17:09;;;;;;;27.55;12.43;;;2.50;99.90;;;;;;5034163;28;20067;-78
2022/03/30 02:19:35;;;;;;;29.27;12.18;;;2.50;99.90;;;;;;5032366;28;20037;-78
2022/03/30 02:22:01;;;;;;;26.75;11.40;;;2.50;99.90;;;;;;5029030;28;20037;-77
2022/03/30 02:24:27;;;;;;;28.17;12.55;;;2.50;99.90;;;;;;5031806;28;20056;-78
2022/03/30 02:26:53;;;;;;;28.67;14.15;;;2.60;99.90;;;;;;5031792;28;20048;-78
2022/03/30 02:29:19;;;;;;;26.40;13.00;;;2.60;99.90;;;;;;5032144;28;20521;-77
2022/03/30 02:31:47;;;;;;;32.08;12.98;;;2.60;99.90;;;;;;5030282;28;20103;-78
2022/03/30 02:34:13;;;;;;;34.03;13.32;;;2.70;99.90;;;;;;5032291;28;20046;-78
2022/03/30 02:36:40;;;;;;;32.83;14.80;;;2.80;99.90;;;;;;5035824;28;20040;-77
2022/03/30 02:39:05;;;;;;;29.50;13.05;;;2.80;99.90;;;;;;5031598;28;20525;-78
2022/03/30 02:41:31;;;;;;;48.03;15.90;;;2.90;99.90;;;;;;5014412;28;20062;-78
2022/03/30 02:43:57;;;;;;;26.58;12.82;;;3.00;99.90;;;;;;5029373;28;20499;-78
2022/03/30 02:46:23;;;;;;;28.70;14.30;;;3.00;99.90;;;;;;5031783;28;20048;-78
2022/03/30 02:48:48;;;;;;;30.42;13.38;;;3.10;99.90;;;;;;4997422;28;20164;-77
2022/03/30 02:51:14;;;;;;;33.97;15.23;;;3.10;99.90;;;;;;5035720;28;20418;-78
2022/03/30 02:53:40;;;;;;;26.65;13.82;;;3.20;99.90;;;;;;5031031;28;20036;-78
2022/03/30 02:56:06;;;;;;;29.90;13.95;;;3.20;99.90;;;;;;5030521;28;20033;-78
2022/03/30 02:58:32;;;;;;;26.30;13.38;;;3.30;99.90;;;;;;5031823;28;20082;-78
2022/03/30 03:00:58;;;;;;;29.38;14.07;;;3.20;99.90;;;;;;5033202;28;20090;-78
2022/03/30 03:03:24;;;;;;;28.77;12.98;;;3.20;99.90;;;;;;5033925;28;20029;-77
2022/03/30 03:05:50;;;;;;;31.40;13.48;;;3.20;99.90;;;;;;5030804;28;20084;-78
2022/03/30 03:08:16;;;;;;;38.78;13.32;;;3.20;99.90;;;;;;5031721;28;20506;-78
2022/03/30 03:10:46;;;;;;;27.27;13.48;;;3.20;99.90;;;;;;5030884;28;20061;-78
2022/03/30 03:13:13;;;;;;;24.88;12.75;;;3.20;99.90;;;;;;5032881;28;20125;-78
2022/03/30 03:15:40;;;;;;;27.25;13.02;;;3.30;99.90;;;;;;5030773;28;20025;-77
2022/03/30 03:18:07;;;;;;;30.17;15.13;;;3.30;99.90;;;;;;5033185;28;20038;-78
2022/03/30 03:20:33;;;;;;;27.75;13.02;;;3.40;99.90;;;;;;5030411;28;20056;-78
2022/03/30 03:23:03;;;;;;;32.55;13.73;;;3.40;99.90;;;;;;5031618;28;20052;-78
2022/03/30 03:25:32;;;;;;;26.10;13.30;;;3.50;99.90;;;;;;5038043;28;20123;-78
2022/03/30 03:28:00;;;;;;;30.55;13.18;;;3.50;99.90;;;;;;5033388;28;20395;-78
2022/03/30 03:30:26;;;;;;;38.40;14.65;;;3.60;99.90;;;;;;5030951;28;20120;-78
2022/03/30 03:32:52;;;;;;;32.90;14.00;;;3.60;99.90;;;;;;5032275;28;20610;-78
2022/03/30 03:35:19;;;;;;;30.23;14.65;;;3.60;99.90;;;;;;5032140;28;20029;-78
2022/03/30 03:37:44;;;;;;;29.10;13.80;;;3.70;99.90;;;;;;5028991;28;20110;-77
2022/03/30 03:40:11;;;;;;;34.75;15.10;;;3.80;99.90;;;;;;5031894;28;20052;-78
2022/03/30 03:42:37;;;;;;;30.73;14.32;;;3.70;99.90;;;;;;5030279;28;20041;-78
2022/03/30 03:45:05;;;;;;;33.00;14.40;;;3.80;99.90;;;;;;5030236;28;20064;-78
2022/03/30 03:47:31;;;;;;;35.35;15.02;;;3.70;99.90;;;;;;5029172;28;20116;-78
2022/03/30 03:49:56;;;;;;;28.17;13.25;;;3.80;99.90;;;;;;5029131;28;20037;-78
2022/03/30 03:52:22;;;;;;;35.85;14.73;;;3.80;99.90;;;;;;5030713;28;20517;-78
2022/03/30 03:54:48;;;;;;;28.08;14.52;;;3.80;99.90;;;;;;5030371;28;20034;-77
2022/03/30 03:57:14;;;;;;;31.65;14.70;;;3.80;99.90;;;;;;5030466;28;20568;-78
2022/03/30 03:59:39;;;;;;;34.83;15.13;;;3.80;99.90;;;;;;5029309;28;20117;-78
2022/03/30 04:02:07;;;;;;;34.55;15.13;;;3.90;99.90;;;;;;5027993;28;20055;-78
2022/03/30 04:04:34;;;;;;;33.42;14.73;;;3.90;99.90;;;;;;5027554;28;20107;-78
2022/03/30 04:06:59;;;;;;;38.22;15.15;;;3.90;99.90;;;;;;5029729;28;20065;-78
2022/03/30 04:09:25;;;;;;;31.98;15.20;;;3.90;99.90;;;;;;5059432;28;20100;-78
2022/03/30 04:11:52;;;;;;;30.60;15.50;;;3.90;99.90;;;;;;5032024;28;20049;-78
2022/03/30 04:14:19;;;;;;;35.30;14.95;;;3.90;99.90;;;;;;5029865;28;20045;-77
2022/03/30 04:16:46;;;;;;;26.65;14.63;;;4.00;99.90;;;;;;5033508;28;20029;-78
2022/03/30 04:19:13;;;;;;;39.97;15.23;;;4.00;99.90;;;;;;5029719;28;20049;-78
2022/03/30 04:21:39;;;;;;;32.00;15.45;;;3.90;99.90;;;;;;5032630;28;20068;-78
2022/03/30 04:24:05;;;;;;;31.10;15.05;;;4.00;99.90;;;;;;5029783;28;20443;-78
2022/03/30 04:26:31;;;;;;;33.70;15.82;;;4.00;99.90;;;;;;5031829;28;20391;-78
2022/03/30 04:28:56;;;;;;;31.02;15.30;;;4.00;99.90;;;;;;5029521;28;20037;-78
2022/03/30 04:31:22;;;;;;;33.17;15.18;;;4.00;99.90;;;;;;5030555;28;20075;-78
2022/03/30 04:33:48;;;;;;;31.20;14.15;;;4.00;99.90;;;;;;5028685;28;20037;-77
2022/03/30 04:36:13;;;;;;;29.48;14.63;;;4.00;99.90;;;;;;5034045;28;20088;-78
2022/03/30 04:38:39;;;;;;;34.97;15.20;;;4.00;99.90;;;;;;5012129;28;20394;-78
2022/03/30 04:41:05;;;;;;;35.72;14.85;;;4.10;99.90;;;;;;5028963;28;20065;-78
2022/03/30 04:43:31;;;;;;;29.35;14.63;;;4.10;99.90;;;;;;5027727;28;20037;-78
2022/03/30 04:45:57;;;;;;;32.15;13.90;;;4.10;99.90;;;;;;5029526;28;20029;-79
2022/03/30 04:48:23;;;;;;;39.10;15.32;;;4.10;99.90;;;;;;5030072;28;20044;-78
2022/03/30 04:50:50;;;;;;;41.95;15.32;;;4.10;99.90;;;;;;5031297;28;20108;-78
2022/03/30 04:53:16;;;;;;;32.45;14.95;;;4.10;99.90;;;;;;5028701;28;20116;-78
2022/03/30 04:55:42;;;;;;;30.52;14.93;;;4.10;99.90;;;;;;5031695;28;20119;-78
2022/03/30 04:58:08;;;;;;;34.80;15.30;;;4.10;99.90;;;;;;5030705;28;20037;-78
2022/03/30 05:00:33;;;;;;;35.40;16.08;;;4.10;99.90;;;;;;5028852;28;20056;-78
2022/03/30 05:02:59;;;;;;;35.47;15.20;;;4.20;99.90;;;;;;5029000;28;20043;-79
2022/03/30 05:05:25;;;;;;;32.88;15.52;;;4.10;99.90;;;;;;5023510;28;20033;-79
2022/03/30 05:07:51;;;;;;;28.80;15.30;;;4.10;99.90;;;;;;5029113;28;20045;-79
2022/03/30 05:10:17;;;;;;;32.70;15.35;;;4.20;99.90;;;;;;5025471;28;20104;-79
2022/03/30 05:12:43;;;;;;;41.42;16.83;;;4.20;99.90;;;;;;5026617;28;20132;-78
2022/03/30 05:15:10;;;;;;;32.38;15.15;;;4.50;99.90;;;;;;5024440;28;20387;-79
2022/03/30 05:17:44;;;;;;;42.58;17.65;;;4.20;99.90;;;;;;5028602;28;20034;-78
2022/03/30 05:20:14;;;;;;;41.13;17.00;;;4.20;99.90;;;;;;5028453;28;20038;-78
2022/03/30 05:22:40;;;;;;;37.40;17.20;;;4.20;99.90;;;;;;5030314;28;20146;-78
2022/03/30 05:25:08;;;;;;;39.33;16.65;;;4.20;99.90;;;;;;5024843;28;20052;-78
2022/03/30 05:27:33;;;;;;;39.72;16.73;;;4.30;99.90;;;;;;5031142;28;20056;-78
2022/03/30 05:29:59;;;;;;;43.38;18.08;;;4.30;99.90;;;;;;5028000;28;20033;-78
2022/03/30 05:32:25;;;;;;;41.08;17.05;;;4.20;99.90;;;;;;5030523;28;20120;-78
2022/03/30 05:34:51;;;;;;;45.25;19.45;;;4.20;99.90;;;;;;5026700;28;20112;-78
2022/03/30 05:37:18;;;;;;;38.33;17.92;;;4.30;99.90;;;;;;5033523;28;20510;-78
2022/03/30 05:39:45;;;;;;;36.97;17.13;;;4.30;99.90;;;;;;5009720;28;20095;-78
2022/03/30 05:42:16;;;;;;;34.92;16.73;;;4.40;99.90;;;;;;5030804;28;20049;-78
2022/03/30 05:44:42;;;;;;;41.58;16.15;;;4.40;99.90;;;;;;5025773;28;20411;-78
2022/03/30 05:47:09;;;;;;;35.95;16.13;;;4.40;99.90;;;;;;5027570;28;20042;-78
2022/03/30 05:49:38;;;;;;;39.35;16.25;;;4.50;99.90;;;;;;5027999;28;20115;-78
2022/03/30 05:52:04;;;;;;;32.35;14.77;;;4.50;99.90;;;;;;5029323;28;20037;-78
2022/03/30 05:54:31;;;;;;;27.67;13.43;;;4.50;99.90;;;;;;5025779;28;20136;-78
2022/03/30 05:57:03;;;;;;;31.95;14.18;;;4.60;99.90;;;;;;5029289;28;20026;-78
2022/03/30 05:59:34;;;;;;;;;;;4.60;99.90;;;;;;5030844;28;20395;-78
2022/03/30 06:02:01;;;;;;;29.70;13.23;;;4.70;99.90;;;;;;5028225;28;19917;-78
2022/03/30 06:04:27;;;;;;;35.25;12.52;;;4.60;99.90;;;;;;5029863;28;20049;-78
2022/03/30 06:06:53;;;;;;;25.65;11.25;;;4.60;99.90;;;;;;5026029;28;20029;-77
2022/03/30 06:09:20;;;;;;;27.45;10.80;;;4.60;99.90;;;;;;5029300;28;20034;-78
2022/03/30 06:11:46;;;;;;;18.42;9.38;;;4.70;99.90;;;;;;5026645;28;20045;-77
2022/03/30 06:14:14;;;;;;;12.48;7.43;;;4.70;99.90;;;;;;5027381;28;20056;-77
2022/03/30 06:16:41;;;;;;;9.23;5.63;;;4.80;99.90;;;;;;5027168;28;20519;-77
2022/03/30 06:19:09;;;;;;;7.60;3.42;;;4.70;99.90;;;;;;5029312;28;20086;-77
2022/03/30 06:21:35;;;;;;;4.60;2.70;;;4.70;99.90;;;;;;5030491;28;20072;-78
2022/03/30 06:24:01;;;;;;;6.35;2.70;;;4.70;99.90;;;;;;5031405;28;20484;-78
2022/03/30 06:26:28;;;;;;;4.00;2.80;;;4.70;99.90;;;;;;5030225;28;20029;-77
2022/03/30 06:28:54;;;;;;;3.85;2.28;;;4.80;99.90;;;;;;5033828;28;20068;-77
2022/03/30 06:31:20;;;;;;;4.40;2.60;;;4.80;99.90;;;;;;5063249;28;20120;-77
2022/03/30 06:33:47;;;;;;;5.05;2.60;;;4.80;99.90;;;;;;5032506;28;20168;-77
2022/03/30 06:36:14;;;;;;;2.70;2.15;;;4.80;99.90;;;;;;5033959;28;20600;-77
2022/03/30 06:38:41;;;;;;;2.80;2.30;;;4.90;99.90;;;;;;5034071;28;20479;-78
2022/03/30 06:41:08;;;;;;;2.70;2.20;;;4.90;99.90;;;;;;5031972;28;20064;-77
2022/03/30 06:43:36;;;;;;;4.72;2.67;;;4.90;99.90;;;;;;5032771;28;20401;-78
2022/03/30 06:46:02;;;;;;;2.78;1.90;;;4.90;99.90;;;;;;5030421;28;20033;-78
2022/03/30 06:48:30;;;;;;;2.92;2.33;;;4.90;99.90;;;;;;5033634;28;20049;-78
2022/03/30 06:50:57;;;;;;;2.63;2.17;;;5.00;99.90;;;;;;5031543;28;20045;-78
2022/03/30 06:53:23;;;;;;;2.40;2.00;;;5.00;99.90;;;;;;5032185;28;20029;-77
2022/03/30 06:55:50;;;;;;;2.20;1.95;;;4.90;99.90;;;;;;5032714;28;20049;-78
2022/03/30 06:58:16;;;;;;;3.20;1.92;;;5.00;99.90;;;;;;5031132;28;20121;-78
2022/03/30 07:00:42;;;;;;;2.35;2.03;;;5.00;99.90;;;;;;5013364;28;20045;-77
2022/03/30 07:03:08;;;;;;;2.28;1.98;;;5.10;99.90;;;;;;5031475;28;20118;-77
2022/03/30 07:05:34;;;;;;;3.08;2.30;;;5.10;99.90;;;;;;5032022;28;20036;-77
2022/03/30 07:10:44;;;;;;;3.92;2.10;;;5.20;99.90;;;;;;5031888;28;20129;-77
2022/03/30 07:13:10;;;;;;;2.78;2.08;;;5.30;99.90;;;;;;5032088;28;20129;-76
2022/03/30 07:15:35;;;;;;;2.50;1.90;;;5.40;99.90;;;;;;5031075;28;20449;-77
2022/03/30 07:18:02;;;;;;;2.80;1.98;;;5.50;99.90;;;;;;5032646;28;20257;-77
2022/03/30 07:20:30;;;;;;;3.13;2.10;;;5.50;99.90;;;;;;5031591;28;20041;-77
2022/03/30 07:22:58;;;;;;;2.58;1.92;;;5.60;99.90;;;;;;5030536;28;20045;-77
2022/03/30 07:25:24;;;;;;;2.30;1.65;;;5.80;99.90;;;;;;5014713;28;20272;-77
2022/03/30 07:27:53;;;;;;;3.10;1.77;;;5.80;99.90;;;;;;5031624;28;20033;-77
2022/03/30 07:30:20;;;;;;;2.72;1.70;;;5.80;99.90;;;;;;5031976;28;20080;-78
2022/03/30 07:32:48;;;;;;;2.45;1.65;;;5.80;99.90;;;;;;5030618;28;20353;-77
2022/03/30 07:35:22;;;;;;;2.55;1.75;;;5.80;99.90;;;;;;5013818;28;20037;-77
2022/03/30 07:37:48;;;;;;;1.92;1.73;;;5.80;99.90;;;;;;5031559;28;20112;-77
2022/03/30 07:40:17;;;;;;;1.80;1.60;;;6.00;99.90;;;;;;5030211;28;20077;-77
2022/03/30 07:42:45;;;;;;;1.50;1.40;;;6.00;99.90;;;;;;5027590;28;20116;-78
2022/03/30 07:45:11;;;;;;;1.80;1.52;;;6.10;99.90;;;;;;5031528;28;20096;-78
2022/03/30 07:47:38;;;;;;;1.90;1.65;;;6.30;99.90;;;;;;5031233;28;20036;-78
2022/03/30 07:50:05;;;;;;;2.22;1.50;;;6.40;99.90;;;;;;5031293;28;20044;-77
2022/03/30 07:52:32;;;;;;;1.80;1.48;;;6.40;99.90;;;;;;5030227;28;20403;-78
2022/03/30 07:54:58;;;;;;;3.60;1.40;;;6.30;99.90;;;;;;5013962;28;20033;-77
2022/03/30 07:57:27;;;;;;;2.10;1.70;;;6.30;99.90;;;;;;5031528;28;20056;-77
2022/03/30 07:59:55;;;;;;;1.83;1.70;;;6.30;99.90;;;;;;5031266;28;20119;-77
2022/03/30 08:02:21;;;;;;;2.35;1.60;;;6.20;99.90;;;;;;5028483;28;20045;-78
2022/03/30 08:04:47;;;;;;;1.63;1.50;;;6.30;99.90;;;;;;5031007;28;20037;-77
2022/03/30 08:07:14;;;;;;;1.67;1.58;;;6.20;99.90;;;;;;5030601;28;20061;-77
2022/03/30 08:09:40;;;;;;;1.58;1.48;;;6.20;99.90;;;;;;5029646;28;20486;-78
2022/03/30 08:12:07;;;;;;;2.75;1.40;;;6.20;99.90;;;;;;5030617;28;20049;-78
2022/03/30 08:14:33;;;;;;;2.17;1.48;;;6.20;99.90;;;;;;5029571;28;20556;-77
2022/03/30 08:16:58;;;;;;;6.28;1.80;;;6.10;99.90;;;;;;5030458;28;20630;-77
2022/03/30 08:19:24;;;;;;;3.78;2.03;;;6.10;99.90;;;;;;5030340;28;20034;-77
2022/03/30 08:24:35;;;;;;;1.98;1.50;;;6.20;99.90;;;;;;5031093;28;20045;-77
2022/03/30 08:27:00;;;;;;;4.45;1.73;;;6.10;99.90;;;;;;5025258;28;20422;-77
2022/03/30 08:29:26;;;;;;;1.95;1.25;;;6.20;99.90;;;;;;5028649;28;20041;-78
2022/03/30 08:31:52;;;;;;;2.45;1.40;;;6.30;99.90;;;;;;5030295;28;20477;-78
2022/03/30 08:34:19;;;;;;;2.35;1.27;;;6.40;99.90;;;;;;5028359;28;20041;-77
2022/03/30 08:36:45;;;;;;;4.13;1.73;;;6.50;99.90;;;;;;5028309;28;20052;-77
2022/03/30 08:39:11;;;;;;;2.70;1.75;;;6.60;99.90;;;;;;5030089;28;20091;-77
2022/03/30 08:41:47;;;;;;;1.70;1.40;;;6.80;99.90;;;;;;5029876;28;20162;-78
2022/03/30 08:44:17;;;;;;;1.90;1.48;;;6.80;99.90;;;;;;5030261;28;20506;-78
2022/03/30 08:46:47;;;;;;;1.30;1.20;;;6.80;99.90;;;;;;5029437;28;20414;-77
2022/03/30 08:49:16;;;;;;;3.58;1.38;;;6.80;99.90;;;;;;5029870;28;20056;-77
2022/03/30 08:51:47;;;;;;;3.10;1.25;;;6.90;99.90;;;;;;5030142;28;20044;-78
2022/03/30 08:54:15;;;;;;;1.38;1.27;;;6.80;99.90;;;;;;5030045;28;20041;-77
2022/03/30 08:56:41;;;;;;;2.83;1.38;;;7.00;99.90;;;;;;5030887;28;20041;-78
2022/03/30 08:59:10;;;;;;;1.65;1.30;;;7.30;99.90;;;;;;5030407;28;20116;-77
2022/03/30 09:01:39;;;;;;;4.35;1.52;;;7.50;99.90;;;;;;5029610;28;20048;-77
2022/03/30 09:04:11;;;;;;;5.00;1.70;;;7.40;99.90;;;;;;5030506;28;20052;-77
2022/03/30 09:06:47;;;;;;;5.55;1.38;;;7.50;99.90;;;;;;5061999;28;20422;-78
2022/03/30 09:09:26;;;;;;;2.60;1.33;;;7.60;99.90;;;;;;5028785;28;20051;-78
2022/03/30 09:11:55;;;;;;;2.80;1.50;;;7.70;99.90;;;;;;5030217;28;20064;-77
2022/03/30 09:14:24;;;;;;;3.38;1.40;;;7.60;99.90;;;;;;5028838;28;20077;-77
2022/03/30 09:16:55;;;;;;;1.80;1.20;;;7.60;99.90;;;;;;5029851;28;20107;-77
2022/03/30 09:19:21;;;;;;;3.75;1.23;;;7.70;99.90;;;;;;5029502;28;20048;-77
2022/03/30 09:21:53;;;;;;;1.45;1.05;;;7.70;99.90;;;;;;5029667;28;20140;-77
2022/03/30 09:24:23;;;;;;;1.40;1.00;;;7.80;99.90;;;;;;5030017;28;20483;-77
2022/03/30 09:26:54;;;;;;;2.83;1.30;;;7.80;99.90;;;;;;5029772;28;20522;-77
2022/03/30 09:29:22;;;;;;;2.80;1.35;;;7.70;99.90;;;;;;5029813;28;20044;-77
2022/03/30 09:31:49;;;;;;;3.80;1.38;;;7.70;99.90;;;;;;5061697;28;20081;-78
2022/03/30 09:34:16;;;;;;;4.90;2.03;;;7.80;99.90;;;;;;5029331;28;20038;-77
2022/03/30 09:36:43;;;;;;;1.98;1.60;;;7.80;99.90;;;;;;5029831;28;20032;-77
2022/03/30 09:39:34;;;;;;;3.10;1.75;;;7.60;99.90;;;;;;5011770;28;20033;-76
2022/03/30 09:42:04;;;;;;;5.97;1.73;;;7.60;99.90;;;;;;5029220;28;20559;-76
2022/03/30 09:44:43;;;;;;;4.88;2.08;;;7.50;99.90;;;;;;5030618;28;20050;-77
2022/03/30 09:47:09;;;;;;;5.78;1.95;;;7.50;99.90;;;;;;5061732;28;20499;-77
2022/03/30 09:49:36;;;;;;;4.28;1.55;;;7.70;99.90;;;;;;5028563;28;20065;-77
2022/03/30 09:52:20;;;;;;;7.28;2.00;;;7.80;99.90;;;;;;5028856;28;20077;-77
2022/03/30 09:54:51;;;;;;;4.70;1.85;;;8.00;99.90;;;;;;5028661;28;20043;-77
2022/03/30 09:57:19;;;;;;;3.80;1.85;;;8.10;99.90;;;;;;5027503;28;20076;-77
2022/03/30 10:00:04;;;;;;;2.97;1.60;;;8.50;99.90;;;;;;5029206;28;20067;-78
2022/03/30 10:02:39;;;;;;;3.35;1.83;;;9.10;99.90;;;;;;5031823;28;20128;-78
2022/03/30 10:05:07;;;;;;;4.32;1.55;;;8.80;99.90;;;;;;5033071;28;20041;-77
2022/03/30 10:07:34;;;;;;;3.88;1.75;;;8.80;99.90;;;;;;5033627;28;20110;-77
2022/03/30 10:10:01;;;;;;;3.38;1.60;;;8.80;99.90;;;;;;5031532;28;20041;-77
2022/03/30 10:12:27;;;;;;;3.60;1.63;;;9.10;99.90;;;;;;5031917;28;20041;-78
2022/03/30 10:14:54;;;;;;;5.10;2.10;;;9.00;99.90;;;;;;5032968;28;20064;-78
2022/03/30 10:17:22;;;;;;;2.72;1.55;;;9.20;99.90;;;;;;5032777;28;20048;-78
2022/03/30 10:19:49;;;;;;;2.50;1.42;;;9.20;99.90;;;;;;5031804;28;20514;-78
2022/03/30 10:22:46;;;;;;;2.42;1.55;;;9.00;99.90;;;;;;5018895;28;20439;-78
2022/03/30 10:25:18;;;;;;;1.92;1.45;;;9.50;99.90;;;;;;5032935;28;20041;-78
2022/03/30 10:28:11;;;;;;;3.38;1.58;;;9.00;99.90;;;;;;5032813;28;20042;-78
2022/03/30 10:30:39;;;;;;;3.80;1.60;;;9.00;99.90;;;;;;5032612;28;20084;-77
2022/03/30 10:33:05;;;;;;;2.05;1.55;;;9.10;99.90;;;;;;5030661;28;20037;-77
2022/03/30 10:35:48;;;;;;;5.78;1.70;;;9.10;99.90;;;;;;5064736;28;20045;-78
2022/03/30 10:38:15;;;;;;;3.70;1.70;;;9.20;99.90;;;;;;5017309;28;20034;-78
2022/03/30 10:40:42;;;;;;;4.60;1.80;;;9.30;99.90;;;;;;5032505;28;20114;-78
2022/03/30 10:43:13;;;;;;;2.38;1.67;;;9.30;99.90;;;;;;5032098;28;20045;-78
2022/03/30 10:46:02;;;;;;;4.70;1.85;;;9.20;99.90;;;;;;5031971;28;20041;-77
2022/03/30 10:48:34;;;;;;;4.88;1.83;;;9.00;99.90;;;;;;5031655;28;20112;-78
2022/03/30 10:51:13;;;;;;;4.95;1.90;;;9.00;99.90;;;;;;5019088;28;20352;-78
2022/03/30 10:53:46;;;;;;;2.80;1.70;;;9.00;99.90;;;;;;5032227;28;20643;-79
2022/03/30 10:56:18;;;;;;;1.98;1.60;;;9.20;99.90;;;;;;5032025;28;20052;-78
2022/03/30 10:58:50;;;;;;;3.35;1.70;;;9.20;99.90;;;;;;5032559;28;20139;-78
2022/03/30 11:01:23;;;;;;;3.40;1.77;;;9.30;99.90;;;;;;5032150;28;20053;-78
2022/03/30 11:03:59;;;;;;;4.85;1.73;;;9.40;99.90;;;;;;5032395;28;20037;-78
2022/03/30 11:06:26;;;;;;;2.08;1.48;;;9.70;99.90;;;;;;5032344;28;20168;-78
2022/03/30 11:08:58;;;;;;;3.63;2.25;;;9.90;99.90;;;;;;5031150;28;20045;-78
2022/03/30 11:11:35;;;;;;;3.88;1.70;;;10.10;99.90;;;;;;5031856;28;20517;-78
2022/03/30 11:14:24;;;;;;;2.85;1.52;;;10.30;99.90;;;;;;5014344;28;20040;-78
2022/03/30 11:16:51;;;;;;;3.17;1.58;;;10.40;98.90;;;;;;5030431;28;20045;-78
2022/03/30 11:19:17;;;;;;;3.20;1.50;;;10.50;99.00;;;;;;5032124;28;20037;-78
2022/03/30 11:22:10;;;;;;;2.40;1.70;;;10.30;98.90;;;;;;5031408;28;20056;-78
2022/03/30 11:24:37;;;;;;;5.35;1.73;;;9.90;99.10;;;;;;5031548;28;20045;-78
2022/03/30 11:27:03;;;;;;;4.47;1.77;;;9.60;99.90;;;;;;5029760;28;20052;-78
2022/03/30 11:29:52;;;;;;;1.98;1.63;;;9.30;99.90;;;;;;5029595;28;20253;-78
2022/03/30 11:32:24;;;;;;;3.75;1.70;;;9.20;99.90;;;;;;5031100;28;20038;-78
2022/03/30 11:34:54;;;;;;;7.53;1.90;;;9.10;99.90;;;;;;5030174;28;20517;-78
2022/03/30 11:37:26;;;;;;;4.90;1.50;;;9.30;99.90;;;;;;5022393;28;20049;-80
2022/03/30 11:40:04;;;;;;;2.58;1.45;;;9.40;99.90;;;;;;5031663;28;20038;-78
2022/03/30 11:42:30;;;;;;;2.90;1.58;;;9.50;99.90;;;;;;5030979;28;20523;-78
2022/03/30 11:45:12;;;;;;;8.25;2.13;;;9.60;99.90;;;;;;4997776;28;20091;-79
2022/03/30 11:48:02;;;;;;;2.00;1.75;;;9.70;99.90;;;;;;5031241;28;20453;-78
2022/03/30 11:50:54;;;;;;;2.42;1.60;;;9.80;99.90;;;;;;5030439;28;20037;-78
2022/03/30 11:53:25;;;;;;;5.45;1.88;;;9.70;99.70;;;;;;5020482;28;20439;-78
2022/03/30 11:55:57;;;;;;;3.58;1.30;;;9.40;98.90;;;;;;5030055;28;20099;-77
2022/03/30 11:58:26;;;;;;;;;;;9.30;99.20;;;;;;5025748;28;20034;-79
2022/03/30 12:00:53;;;;;;;1.85;1.27;;;9.20;98.60;;;;;;5031468;28;19917;-78
2022/03/30 12:03:19;;;;;;;2.97;1.35;;;9.20;99.00;;;;;;5030549;28;20079;-78
2022/03/30 12:05:46;;;;;;;3.28;1.30;;;9.30;99.20;;;;;;5029767;28;20552;-78
2022/03/30 12:08:12;;;;;;;2.28;1.08;;;9.40;98.80;;;;;;5031067;28;20049;-78
2022/03/30 12:10:38;;;;;;;1.65;1.38;;;9.20;98.10;;;;;;5029939;28;20311;-78
2022/03/30 12:13:04;;;;;;;1.33;1.15;;;9.20;98.60;;;;;;5029815;28;20514;-77
2022/03/30 12:15:30;;;;;;;3.80;1.50;;;9.20;98.40;;;;;;5031153;28;20041;-77
2022/03/30 12:17:58;;;;;;;2.30;1.27;;;9.30;98.40;;;;;;5018418;28;20533;-77
2022/03/30 12:20:35;;;;;;;1.80;1.30;;;9.30;98.10;;;;;;5029188;28;20049;-78
2022/03/30 12:23:04;;;;;;;6.10;1.52;;;9.20;97.80;;;;;;5028950;28;20434;-77
2022/03/30 12:25:40;;;;;;;2.03;1.58;;;9.20;97.40;;;;;;5061516;28;20095;-78
2022/03/30 12:28:06;;;;;;;6.28;1.60;;;9.30;97.90;;;;;;5029948;28;20045;-78
2022/03/30 12:30:35;;;;;;;4.63;1.70;;;9.30;97.90;;;;;;5029889;28;20116;-78
2022/03/30 12:33:01;;;;;;;3.17;1.50;;;9.50;98.10;;;;;;5028070;28;20076;-78
2022/03/30 12:35:37;;;;;;;3.08;1.60;;;9.50;98.00;;;;;;5030786;28;20079;-78
2022/03/30 12:38:14;;;;;;;3.35;1.50;;;9.70;98.00;;;;;;5030603;28;20040;-78
2022/03/30 12:40:43;;;;;;;4.03;1.50;;;9.70;97.50;;;;;;5048733;28;20060;-79
2022/03/30 12:43:09;;;;;;;2.72;1.55;;;9.70;98.00;;;;;;5031037;28;20077;-78
2022/03/30 12:45:54;;;;;;;4.10;1.65;;;9.40;97.70;;;;;;5012513;28;20037;-78
2022/03/30 12:48:27;;;;;;;3.70;1.50;;;9.40;97.30;;;;;;5029428;28;20045;-77
2022/03/30 12:50:53;;;;;;;2.03;1.63;;;9.40;97.50;;;;;;5017354;28;20044;-78
2022/03/30 12:53:20;;;;;;;1.70;1.50;;;9.50;97.80;;;;;;5030146;28;20037;-78
2022/03/30 12:55:51;;;;;;;5.78;1.85;;;9.70;97.90;;;;;;5021941;28;20495;-78
2022/03/30 12:58:20;;;;;;;3.97;1.65;;;10.00;98.20;;;;;;4984973;28;20041;-78
2022/03/30 13:01:06;;;;;;;6.28;1.70;;;10.00;97.20;;;;;;5017602;28;20103;-78
2022/03/30 13:03:34;;;;;;;3.90;2.10;;;10.00;97.10;;;;;;5022472;28;20085;-78